sensor_id;sensor_type;location;lat;lon;timestamp;temperature;humidity
41882;DHT22;27562;47.524;12.404;2023-03-01T00:01:21;0.60;99.90
41882;DHT22;27562;47.524;12.404;2023-03-01T00:03:48;0.60;99.90
41882;DHT22;27562;47.524;12.404;2023-03-01T00:06:13;0.60;99.90
41882;DHT22;27562;47.524;12.404;2023-03-01T00:08:39;0.60;99.90
41882;DHT22;27562;47.524;12.404;2023-03-01T00:11:06;0.50;99.90
41882;DHT22;27562;47.524;12.404;2023-03-01T00:13:33;0.50;99.90
41882;DHT22;27562;47.524;12.404;2023-03-01T00:15:59;0.50;99.90
41882;DHT22;27562;47.524;12.404;2023-03-01T00:18:26;0.50;99.90
41882;DHT22;27562;47.524;12.404;2023-03-01T00:20:52;0.50;99.90
41882;DHT22;27562;47.524;12.404;2023-03-01T00:23:18;0.50;99.90
41882;DHT22;27562;47.524;12.404;2023-03-01T00:25:43;0.50;99.90
41882;DHT22;27562;47.524;12.404;2023-03-01T00:28:09;0.50;99.90
41882;DHT22;27562;47.524;12.404;2023-03-01T00:30:34;0.50;99.90
41882;DHT22;27562;47.524;12.404;2023-03-01T00:33:00;0.60;99.90
41882;DHT22;27562;47.524;12.404;2023-03-01T00:35:26;0.60;99.90
41882;DHT22;27562;47.524;12.404;2023-03-01T00:37:51;0.60;99.90
41882;DHT22;27562;47.524;12.404;2023-03-01T00:40:23;0.50;99.90
41882;DHT22;27562;47.524;12.404;2023-03-01T00:42:49;0.50;99.90
41882;DHT22;27562;47.524;12.404;2023-03-01T00:45:15;0.50;99.90
41882;DHT22;27562;47.524;12.404;2023-03-01T00:47:40;0.50;99.90
41882;DHT22;27562;47.524;12.404;2023-03-01T00:50:06;0.50;99.90
41882;DHT22;27562;47.524;12.404;2023-03-01T00:52:32;0.50;99.90
41882;DHT22;27562;47.524;12.404;2023-03-01T00:54:57;0.50;99.90
41882;DHT22;27562;47.524;12.404;2023-03-01T00:57:23;0.50;99.90
41882;DHT22;27562;47.524;12.404;2023-03-01T00:59:49;0.60;99.90
41882;DHT22;27562;47.524;12.404;2023-03-01T01:02:14;0.50;99.90
41882;DHT22;27562;47.524;12.404;2023-03-01T01:04:40;0.60;99.90
41882;DHT22;27562;47.524;12.404;2023-03-01T01:07:06;0.60;99.90
41882;DHT22;27562;47.524;12.404;2023-03-01T01:09:31;0.60;99.90
41882;DHT22;27562;47.524;12.404;2023-03-01T01:11:57;0.60;99.90
41882;DHT22;27562;47.524;12.404;2023-03-01T01:14:22;0.60;99.90
41882;DHT22;27562;47.524;12.404;2023-03-01T01:16:48;0.60;99.90
41882;DHT22;27562;47.524;12.404;2023-03-01T01:19:14;0.60;99.90
41882;DHT22;27562;47.524;12.404;2023-03-01T01:21:39;0.60;99.90
41882;DHT22;27562;47.524;12.404;2023-03-01T01:24:06;0.60;99.90
41882;DHT22;27562;47.524;12.404;2023-03-01T01:26:33;0.60;99.90
41882;DHT22;27562;47.524;12.404;2023-03-01T01:28:59;0.60;99.90
41882;DHT22;27562;47.524;12.404;2023-03-01T01:31:25;0.60;99.90
41882;DHT22;27562;47.524;12.404;2023-03-01T01:33:51;0.60;99.90
41882;DHT22;27562;47.524;12.404;2023-03-01T01:36:17;0.60;99.90
41882;DHT22;27562;47.524;12.404;2023-03-01T01:38:43;0.50;99.90
41882;DHT22;27562;47.524;12.404;2023-03-01T01:41:09;0.50;99.90
41882;DHT22;27562;47.524;12.404;2023-03-01T01:43:41;0.50;99.90
41882;DHT22;27562;47.524;12.404;2023-03-01T01:46:12;0.40;99.90
41882;DHT22;27562;47.524;12.404;2023-03-01T01:48:45;0.40;99.90
41882;DHT22;27562;47.524;12.404;2023-03-01T01:51:18;0.30;99.90
41882;DHT22;27562;47.524;12.404;2023-03-01T01:53:46;0.40;99.90
41882;DHT22;27562;47.524;12.404;2023-03-01T01:56:13;0.40;99.90
41882;DHT22;27562;47.524;12.404;2023-03-01T01:58:40;0.40;99.90
41882;DHT22;27562;47.524;12.404;2023-03-01T02:01:07;0.40;99.90
41882;DHT22;27562;47.524;12.404;2023-03-01T02:03:33;0.40;99.90
41882;DHT22;27562;47.524;12.404;2023-03-01T02:08:35;0.40;99.90
41882;DHT22;27562;47.524;12.404;2023-03-01T02:11:02;0.30;99.90
41882;DHT22;27562;47.524;12.404;2023-03-01T02:13:30;0.30;99.90
41882;DHT22;27562;47.524;12.404;2023-03-01T02:15:55;0.30;99.90
41882;DHT22;27562;47.524;12.404;2023-03-01T02:18:22;0.30;99.90
41882;DHT22;27562;47.524;12.404;2023-03-01T02:20:58;0.30;99.90
41882;DHT22;27562;47.524;12.404;2023-03-01T02:23:25;0.30;99.90
41882;DHT22;27562;47.524;12.404;2023-03-01T02:26:14;0.20;99.90
41882;DHT22;27562;47.524;12.404;2023-03-01T02:28:38;0.30;99.90
41882;DHT22;27562;47.524;12.404;2023-03-01T02:31:05;0.30;99.90
41882;DHT22;27562;47.524;12.404;2023-03-01T02:33:51;0.30;99.90
41882;DHT22;27562;47.524;12.404;2023-03-01T02:36:18;0.30;99.90
41882;DHT22;27562;47.524;12.404;2023-03-01T02:38:45;0.30;99.90
41882;DHT22;27562;47.524;12.404;2023-03-01T02:41:11;0.30;99.90
41882;DHT22;27562;47.524;12.404;2023-03-01T02:43:38;0.40;99.90
41882;DHT22;27562;47.524;12.404;2023-03-01T02:46:06;0.40;99.90
41882;DHT22;27562;47.524;12.404;2023-03-01T02:56:29;0.40;99.90
41882;DHT22;27562;47.524;12.404;2023-03-01T02:58:55;0.40;99.90
41882;DHT22;27562;47.524;12.404;2023-03-01T03:01:26;0.40;99.90
41882;DHT22;27562;47.524;12.404;2023-03-01T03:04:12;0.40;99.90
41882;DHT22;27562;47.524;12.404;2023-03-01T03:06:43;0.40;99.90
41882;DHT22;27562;47.524;12.404;2023-03-01T03:09:08;0.40;99.90
41882;DHT22;27562;47.524;12.404;2023-03-01T03:11:34;0.40;99.90
41882;DHT22;27562;47.524;12.404;2023-03-01T03:13:59;0.40;99.90
41882;DHT22;27562;47.524;12.404;2023-03-01T03:16:25;0.50;99.90
41882;DHT22;27562;47.524;12.404;2023-03-01T03:18:51;0.50;99.90
41882;DHT22;27562;47.524;12.404;2023-03-01T03:21:16;0.50;99.90
41882;DHT22;27562;47.524;12.404;2023-03-01T03:23:42;0.50;99.90
41882;DHT22;27562;47.524;12.404;2023-03-01T03:26:08;0.50;99.90
41882;DHT22;27562;47.524;12.404;2023-03-01T03:28:34;0.40;99.90
41882;DHT22;27562;47.524;12.404;2023-03-01T03:31:00;0.40;99.90
41882;DHT22;27562;47.524;12.404;2023-03-01T03:33:31;0.40;99.90
41882;DHT22;27562;47.524;12.404;2023-03-01T03:35:57;0.40;99.90
41882;DHT22;27562;47.524;12.404;2023-03-01T03:38:23;0.40;99.90
41882;DHT22;27562;47.524;12.404;2023-03-01T03:40:49;0.30;99.90
41882;DHT22;27562;47.524;12.404;2023-03-01T03:43:16;0.30;99.90
41882;DHT22;27562;47.524;12.404;2023-03-01T03:45:43;0.30;99.90
41882;DHT22;27562;47.524;12.404;2023-03-01T03:48:09;0.20;99.90
41882;DHT22;27562;47.524;12.404;2023-03-01T03:50:35;0.20;99.90
41882;DHT22;27562;47.524;12.404;2023-03-01T03:53:02;0.20;99.90
41882;DHT22;27562;47.524;12.404;2023-03-01T03:55:28;0.10;99.90
41882;DHT22;27562;47.524;12.404;2023-03-01T03:57:59;0.10;99.90
41882;DHT22;27562;47.524;12.404;2023-03-01T04:00:27;0.20;99.90
41882;DHT22;27562;47.524;12.404;2023-03-01T04:02:53;0.20;99.90
41882;DHT22;27562;47.524;12.404;2023-03-01T04:05:21;0.20;99.90
41882;DHT22;27562;47.524;12.404;2023-03-01T04:07:47;0.30;99.90
41882;DHT22;27562;47.524;12.404;2023-03-01T04:10:16;0.30;99.90
41882;DHT22;27562;47.524;12.404;2023-03-01T04:12:42;0.20;99.90
41882;DHT22;27562;47.524;12.404;2023-03-01T04:15:08;0.20;99.90
41882;DHT22;27562;47.524;12.404;2023-03-01T04:17:40;0.20;99.90
41882;DHT22;27562;47.524;12.404;2023-03-01T04:20:07;0.20;99.90
41882;DHT22;27562;47.524;12.404;2023-03-01T04:22:33;0.20;99.90
41882;DHT22;27562;47.524;12.404;2023-03-01T04:24:59;0.20;99.90
41882;DHT22;27562;47.524;12.404;2023-03-01T04:27:34;0.20;99.90
41882;DHT22;27562;47.524;12.404;2023-03-01T04:29:59;0.20;99.90
41882;DHT22;27562;47.524;12.404;2023-03-01T04:32:25;0.30;99.90
41882;DHT22;27562;47.524;12.404;2023-03-01T04:34:50;0.30;99.90
41882;DHT22;27562;47.524;12.404;2023-03-01T04:37:16;0.30;99.90
41882;DHT22;27562;47.524;12.404;2023-03-01T04:39:41;0.30;99.90
41882;DHT22;27562;47.524;12.404;2023-03-01T04:42:11;0.30;99.90
41882;DHT22;27562;47.524;12.404;2023-03-01T04:44:37;0.30;99.90
41882;DHT22;27562;47.524;12.404;2023-03-01T04:47:02;0.30;99.90
41882;DHT22;27562;47.524;12.404;2023-03-01T04:49:28;0.30;99.90
41882;DHT22;27562;47.524;12.404;2023-03-01T04:51:54;0.30;99.90
41882;DHT22;27562;47.524;12.404;2023-03-01T04:54:19;0.20;99.90
41882;DHT22;27562;47.524;12.404;2023-03-01T04:56:45;0.20;99.90
41882;DHT22;27562;47.524;12.404;2023-03-01T04:59:11;0.20;99.90
41882;DHT22;27562;47.524;12.404;2023-03-01T05:01:37;0.10;99.90
41882;DHT22;27562;47.524;12.404;2023-03-01T05:04:03;0.20;99.90
41882;DHT22;27562;47.524;12.404;2023-03-01T05:06:30;0.10;99.90
41882;DHT22;27562;47.524;12.404;2023-03-01T05:08:56;0.10;99.90
41882;DHT22;27562;47.524;12.404;2023-03-01T05:11:22;0.10;99.90
41882;DHT22;27562;47.524;12.404;2023-03-01T05:13:47;0.10;99.90
41882;DHT22;27562;47.524;12.404;2023-03-01T05:16:15;0.10;99.90
41882;DHT22;27562;47.524;12.404;2023-03-01T05:18:42;0.20;99.90
41882;DHT22;27562;47.524;12.404;2023-03-01T05:21:09;0.20;99.90
41882;DHT22;27562;47.524;12.404;2023-03-01T05:23:35;0.20;99.90
41882;DHT22;27562;47.524;12.404;2023-03-01T05:26:02;0.10;99.90
41882;DHT22;27562;47.524;12.404;2023-03-01T05:28:29;0.10;99.90
41882;DHT22;27562;47.524;12.404;2023-03-01T05:30:55;0.20;99.90
41882;DHT22;27562;47.524;12.404;2023-03-01T05:33:21;0.20;99.90
41882;DHT22;27562;47.524;12.404;2023-03-01T05:35:47;0.20;99.90
41882;DHT22;27562;47.524;12.404;2023-03-01T05:38:13;0.10;99.90
41882;DHT22;27562;47.524;12.404;2023-03-01T05:40:40;0.10;99.90
41882;DHT22;27562;47.524;12.404;2023-03-01T05:43:05;0.10;99.90
41882;DHT22;27562;47.524;12.404;2023-03-01T05:45:31;0.10;99.90
41882;DHT22;27562;47.524;12.404;2023-03-01T05:47:57;0.00;99.90
41882;DHT22;27562;47.524;12.404;2023-03-01T05:50:24;0.00;99.90
41882;DHT22;27562;47.524;12.404;2023-03-01T05:52:51;0.00;99.90
41882;DHT22;27562;47.524;12.404;2023-03-01T05:55:18;0.00;99.90
41882;DHT22;27562;47.524;12.404;2023-03-01T05:57:44;0.00;99.90
41882;DHT22;27562;47.524;12.404;2023-03-01T06:00:10;0.00;99.90
41882;DHT22;27562;47.524;12.404;2023-03-01T06:02:36;-0.10;99.90
41882;DHT22;27562;47.524;12.404;2023-03-01T06:05:01;-0.10;99.90
41882;DHT22;27562;47.524;12.404;2023-03-01T06:07:27;-0.10;99.90
41882;DHT22;27562;47.524;12.404;2023-03-01T06:09:53;-0.10;99.90
41882;DHT22;27562;47.524;12.404;2023-03-01T06:12:18;-0.10;99.90
41882;DHT22;27562;47.524;12.404;2023-03-01T06:14:45;-0.10;99.90
41882;DHT22;27562;47.524;12.404;2023-03-01T06:17:10;-0.10;99.90
41882;DHT22;27562;47.524;12.404;2023-03-01T06:19:36;-0.10;99.90
41882;DHT22;27562;47.524;12.404;2023-03-01T06:22:01;0.00;99.90
41882;DHT22;27562;47.524;12.404;2023-03-01T06:24:27;0.00;99.90
41882;DHT22;27562;47.524;12.404;2023-03-01T06:26:53;0.00;99.90
41882;DHT22;27562;47.524;12.404;2023-03-01T06:29:19;0.10;99.90
41882;DHT22;27562;47.524;12.404;2023-03-01T06:31:45;0.10;99.90
41882;DHT22;27562;47.524;12.404;2023-03-01T06:34:11;0.10;99.90
41882;DHT22;27562;47.524;12.404;2023-03-01T06:36:38;0.10;99.90
41882;DHT22;27562;47.524;12.404;2023-03-01T06:39:04;0.10;99.90
41882;DHT22;27562;47.524;12.404;2023-03-01T06:41:30;0.10;99.90
41882;DHT22;27562;47.524;12.404;2023-03-01T06:43:56;0.10;99.90
41882;DHT22;27562;47.524;12.404;2023-03-01T06:46:21;0.10;99.90
41882;DHT22;27562;47.524;12.404;2023-03-01T06:48:47;0.10;99.90
41882;DHT22;27562;47.524;12.404;2023-03-01T06:51:13;0.20;99.90
41882;DHT22;27562;47.524;12.404;2023-03-01T06:53:38;0.20;99.90
41882;DHT22;27562;47.524;12.404;2023-03-01T06:56:04;0.20;99.90
41882;DHT22;27562;47.524;12.404;2023-03-01T06:58:29;0.20;99.90
41882;DHT22;27562;47.524;12.404;2023-03-01T07:00:55;0.30;99.90
41882;DHT22;27562;47.524;12.404;2023-03-01T07:03:21;0.30;99.90
41882;DHT22;27562;47.524;12.404;2023-03-01T07:05:48;0.30;99.90
41882;DHT22;27562;47.524;12.404;2023-03-01T07:08:14;0.40;99.90
41882;DHT22;27562;47.524;12.404;2023-03-01T07:10:39;0.50;99.90
41882;DHT22;27562;47.524;12.404;2023-03-01T07:13:05;0.50;99.90
41882;DHT22;27562;47.524;12.404;2023-03-01T07:15:32;0.50;99.90
41882;DHT22;27562;47.524;12.404;2023-03-01T07:17:58;0.60;99.90
41882;DHT22;27562;47.524;12.404;2023-03-01T07:20:23;0.60;99.90
41882;DHT22;27562;47.524;12.404;2023-03-01T07:22:54;0.60;99.90
41882;DHT22;27562;47.524;12.404;2023-03-01T07:25:20;0.70;99.90
41882;DHT22;27562;47.524;12.404;2023-03-01T07:27:49;0.70;99.90
41882;DHT22;27562;47.524;12.404;2023-03-01T07:30:14;0.70;99.90
41882;DHT22;27562;47.524;12.404;2023-03-01T07:32:40;0.70;99.90
41882;DHT22;27562;47.524;12.404;2023-03-01T07:35:06;0.70;99.90
41882;DHT22;27562;47.524;12.404;2023-03-01T07:37:31;0.80;99.90
41882;DHT22;27562;47.524;12.404;2023-03-01T07:39:57;0.90;99.90
41882;DHT22;27562;47.524;12.404;2023-03-01T07:42:22;0.90;99.90
41882;DHT22;27562;47.524;12.404;2023-03-01T07:44:48;1.00;99.90
41882;DHT22;27562;47.524;12.404;2023-03-01T07:47:14;1.00;99.90
41882;DHT22;27562;47.524;12.404;2023-03-01T07:49:39;1.10;99.90
41882;DHT22;27562;47.524;12.404;2023-03-01T07:52:05;1.20;99.90
41882;DHT22;27562;47.524;12.404;2023-03-01T07:54:30;1.20;99.90
41882;DHT22;27562;47.524;12.404;2023-03-01T07:56:56;1.30;99.90
41882;DHT22;27562;47.524;12.404;2023-03-01T07:59:22;1.30;99.90
41882;DHT22;27562;47.524;12.404;2023-03-01T08:01:54;1.40;99.90
41882;DHT22;27562;47.524;12.404;2023-03-01T08:04:20;1.40;99.90
41882;DHT22;27562;47.524;12.404;2023-03-01T08:06:45;1.50;99.90
41882;DHT22;27562;47.524;12.404;2023-03-01T08:09:11;1.50;99.90
41882;DHT22;27562;47.524;12.404;2023-03-01T08:11:36;1.50;99.90
41882;DHT22;27562;47.524;12.404;2023-03-01T08:14:02;1.50;99.90
41882;DHT22;27562;47.524;12.404;2023-03-01T08:16:28;1.50;99.90
41882;DHT22;27562;47.524;12.404;2023-03-01T08:18:53;1.40;99.90
41882;DHT22;27562;47.524;12.404;2023-03-01T08:21:21;1.40;99.90
41882;DHT22;27562;47.524;12.404;2023-03-01T08:23:47;1.40;99.90
41882;DHT22;27562;47.524;12.404;2023-03-01T08:26:14;1.40;99.90
41882;DHT22;27562;47.524;12.404;2023-03-01T08:28:40;1.40;99.90
41882;DHT22;27562;47.524;12.404;2023-03-01T08:31:27;1.50;99.90
41882;DHT22;27562;47.524;12.404;2023-03-01T08:33:52;1.50;99.90
41882;DHT22;27562;47.524;12.404;2023-03-01T08:36:21;1.50;99.90
41882;DHT22;27562;47.524;12.404;2023-03-01T08:38:47;1.50;99.90
41882;DHT22;27562;47.524;12.404;2023-03-01T08:41:13;1.50;99.90
41882;DHT22;27562;47.524;12.404;2023-03-01T08:43:39;1.60;99.90
41882;DHT22;27562;47.524;12.404;2023-03-01T08:46:05;1.60;99.90
41882;DHT22;27562;47.524;12.404;2023-03-01T08:48:30;1.70;99.90
41882;DHT22;27562;47.524;12.404;2023-03-01T08:50:56;1.80;99.90
41882;DHT22;27562;47.524;12.404;2023-03-01T08:53:22;1.80;99.90
41882;DHT22;27562;47.524;12.404;2023-03-01T08:55:47;2.00;99.90
41882;DHT22;27562;47.524;12.404;2023-03-01T08:58:13;2.00;99.90
41882;DHT22;27562;47.524;12.404;2023-03-01T09:00:38;2.10;99.90
41882;DHT22;27562;47.524;12.404;2023-03-01T09:03:05;2.20;99.90
41882;DHT22;27562;47.524;12.404;2023-03-01T09:05:31;2.20;99.90
41882;DHT22;27562;47.524;12.404;2023-03-01T09:07:57;2.30;99.90
41882;DHT22;27562;47.524;12.404;2023-03-01T09:10:22;2.30;99.90
41882;DHT22;27562;47.524;12.404;2023-03-01T09:12:48;2.40;99.90
41882;DHT22;27562;47.524;12.404;2023-03-01T09:15:13;2.40;99.90
41882;DHT22;27562;47.524;12.404;2023-03-01T09:17:39;2.40;99.90
41882;DHT22;27562;47.524;12.404;2023-03-01T09:20:05;2.40;99.90
41882;DHT22;27562;47.524;12.404;2023-03-01T09:22:32;2.40;99.90
41882;DHT22;27562;47.524;12.404;2023-03-01T09:24:58;2.40;99.90
41882;DHT22;27562;47.524;12.404;2023-03-01T09:27:24;2.40;99.90
41882;DHT22;27562;47.524;12.404;2023-03-01T09:29:50;2.50;99.90
41882;DHT22;27562;47.524;12.404;2023-03-01T09:32:16;2.50;99.90
41882;DHT22;27562;47.524;12.404;2023-03-01T09:34:41;2.50;99.90
41882;DHT22;27562;47.524;12.404;2023-03-01T09:37:27;2.60;99.90
41882;DHT22;27562;47.524;12.404;2023-03-01T09:39:52;2.60;99.90
41882;DHT22;27562;47.524;12.404;2023-03-01T09:42:18;2.70;99.90
41882;DHT22;27562;47.524;12.404;2023-03-01T09:44:57;2.80;99.90
41882;DHT22;27562;47.524;12.404;2023-03-01T09:47:26;2.80;99.90
41882;DHT22;27562;47.524;12.404;2023-03-01T09:55:25;2.90;99.90
41882;DHT22;27562;47.524;12.404;2023-03-01T09:57:55;3.00;99.90
41882;DHT22;27562;47.524;12.404;2023-03-01T10:03:11;3.10;99.90
41882;DHT22;27562;47.524;12.404;2023-03-01T10:08:24;3.10;99.90
41882;DHT22;27562;47.524;12.404;2023-03-01T10:10:52;3.20;99.90
41882;DHT22;27562;47.524;12.404;2023-03-01T10:13:23;3.20;99.90
41882;DHT22;27562;47.524;12.404;2023-03-01T10:15:56;3.30;99.90
41882;DHT22;27562;47.524;12.404;2023-03-01T10:18:28;3.30;99.90
41882;DHT22;27562;47.524;12.404;2023-03-01T10:21:01;3.40;99.90
41882;DHT22;27562;47.524;12.404;2023-03-01T10:23:27;3.50;99.90
41882;DHT22;27562;47.524;12.404;2023-03-01T10:31:07;3.60;99.90
41882;DHT22;27562;47.524;12.404;2023-03-01T10:33:37;3.60;99.90
41882;DHT22;27562;47.524;12.404;2023-03-01T10:36:05;3.60;99.90
41882;DHT22;27562;47.524;12.404;2023-03-01T10:38:31;3.70;99.90
41882;DHT22;27562;47.524;12.404;2023-03-01T10:40:58;3.70;99.90
41882;DHT22;27562;47.524;12.404;2023-03-01T10:43:32;3.70;99.90
41882;DHT22;27562;47.524;12.404;2023-03-01T10:46:18;3.70;99.90
41882;DHT22;27562;47.524;12.404;2023-03-01T10:48:50;3.80;99.90
41882;DHT22;27562;47.524;12.404;2023-03-01T10:51:30;3.80;99.90
41882;DHT22;27562;47.524;12.404;2023-03-01T10:53:55;4.00;99.90
41882;DHT22;27562;47.524;12.404;2023-03-01T10:56:21;4.10;99.90
41882;DHT22;27562;47.524;12.404;2023-03-01T10:58:59;4.00;99.90
41882;DHT22;27562;47.524;12.404;2023-03-01T11:01:26;4.10;99.90
41882;DHT22;27562;47.524;12.404;2023-03-01T11:06:30;4.10;99.90
41882;DHT22;27562;47.524;12.404;2023-03-01T11:08:56;4.10;99.90
41882;DHT22;27562;47.524;12.404;2023-03-01T11:11:32;4.20;99.90
41882;DHT22;27562;47.524;12.404;2023-03-01T11:13:59;4.30;99.90
41882;DHT22;27562;47.524;12.404;2023-03-01T11:18:57;4.50;99.90
41882;DHT22;27562;47.524;12.404;2023-03-01T11:21:24;4.50;99.90
41882;DHT22;27562;47.524;12.404;2023-03-01T11:23:50;4.50;99.90
41882;DHT22;27562;47.524;12.404;2023-03-01T11:26:16;4.50;99.90
41882;DHT22;27562;47.524;12.404;2023-03-01T11:28:42;4.60;99.90
41882;DHT22;27562;47.524;12.404;2023-03-01T11:31:10;4.60;99.90
41882;DHT22;27562;47.524;12.404;2023-03-01T11:33:44;4.70;99.90
41882;DHT22;27562;47.524;12.404;2023-03-01T11:36:25;4.70;99.90
41882;DHT22;27562;47.524;12.404;2023-03-01T11:38:52;4.80;99.90
41882;DHT22;27562;47.524;12.404;2023-03-01T11:41:23;4.90;99.90
41882;DHT22;27562;47.524;12.404;2023-03-01T11:51:23;5.00;99.90
41882;DHT22;27562;47.524;12.404;2023-03-01T11:56:43;5.20;99.90
41882;DHT22;27562;47.524;12.404;2023-03-01T11:59:26;5.20;99.90
41882;DHT22;27562;47.524;12.404;2023-03-01T12:09:52;5.40;99.90
41882;DHT22;27562;47.524;12.404;2023-03-01T12:12:31;5.40;99.90
41882;DHT22;27562;47.524;12.404;2023-03-01T12:15:09;5.50;99.90
41882;DHT22;27562;47.524;12.404;2023-03-01T12:17:44;5.50;99.90
41882;DHT22;27562;47.524;12.404;2023-03-01T12:23:01;5.70;99.90
41882;DHT22;27562;47.524;12.404;2023-03-01T12:25:39;5.70;99.90
41882;DHT22;27562;47.524;12.404;2023-03-01T12:38:17;5.70;99.90
41882;DHT22;27562;47.524;12.404;2023-03-01T12:48:47;5.90;99.90
41882;DHT22;27562;47.524;12.404;2023-03-01T12:51:18;5.90;99.90
41882;DHT22;27562;47.524;12.404;2023-03-01T12:53:49;5.90;99.90
41882;DHT22;27562;47.524;12.404;2023-03-01T12:56:17;5.90;99.90
41882;DHT22;27562;47.524;12.404;2023-03-01T13:11:18;6.40;99.90
41882;DHT22;27562;47.524;12.404;2023-03-01T13:13:44;6.40;99.90
41882;DHT22;27562;47.524;12.404;2023-03-01T13:19:15;6.50;99.90
41882;DHT22;27562;47.524;12.404;2023-03-01T13:21:44;6.60;99.90
41882;DHT22;27562;47.524;12.404;2023-03-01T13:29:51;6.80;99.90
41882;DHT22;27562;47.524;12.404;2023-03-01T13:34:49;6.80;99.90
41882;DHT22;27562;47.524;12.404;2023-03-01T13:37:28;6.90;99.90
41882;DHT22;27562;47.524;12.404;2023-03-01T13:39:55;7.00;99.90
41882;DHT22;27562;47.524;12.404;2023-03-01T13:42:30;7.00;99.90
41882;DHT22;27562;47.524;12.404;2023-03-01T13:44:57;6.90;99.90
41882;DHT22;27562;47.524;12.404;2023-03-01T13:47:22;7.10;99.90
41882;DHT22;27562;47.524;12.404;2023-03-01T13:49:52;7.10;99.90
41882;DHT22;27562;47.524;12.404;2023-03-01T13:52:40;7.20;99.90
41882;DHT22;27562;47.524;12.404;2023-03-01T13:55:05;7.30;99.90
41882;DHT22;27562;47.524;12.404;2023-03-01T13:57:36;7.40;99.90
41882;DHT22;27562;47.524;12.404;2023-03-01T14:00:04;7.40;99.90
41882;DHT22;27562;47.524;12.404;2023-03-01T14:02:30;7.50;99.90
41882;DHT22;27562;47.524;12.404;2023-03-01T14:04:57;7.50;99.90
41882;DHT22;27562;47.524;12.404;2023-03-01T14:07:23;7.60;99.90
41882;DHT22;27562;47.524;12.404;2023-03-01T14:10:03;7.60;99.90
41882;DHT22;27562;47.524;12.404;2023-03-01T14:19:59;7.60;99.90
41882;DHT22;27562;47.524;12.404;2023-03-01T14:22:30;7.60;99.90
41882;DHT22;27562;47.524;12.404;2023-03-01T14:25:01;7.60;99.90
41882;DHT22;27562;47.524;12.404;2023-03-01T14:27:33;7.60;99.90
41882;DHT22;27562;47.524;12.404;2023-03-01T14:30:00;7.60;99.90
41882;DHT22;27562;47.524;12.404;2023-03-01T14:32:29;7.60;99.90
41882;DHT22;27562;47.524;12.404;2023-03-01T14:34:55;7.60;99.90
41882;DHT22;27562;47.524;12.404;2023-03-01T14:37:23;7.60;99.90
41882;DHT22;27562;47.524;12.404;2023-03-01T14:39:49;7.60;99.90
41882;DHT22;27562;47.524;12.404;2023-03-01T14:42:15;7.60;99.90
41882;DHT22;27562;47.524;12.404;2023-03-01T14:44:45;7.50;99.90
41882;DHT22;27562;47.524;12.404;2023-03-01T14:47:12;7.40;99.90
41882;DHT22;27562;47.524;12.404;2023-03-01T14:49:39;7.30;99.90
41882;DHT22;27562;47.524;12.404;2023-03-01T14:52:07;7.20;99.90
41882;DHT22;27562;47.524;12.404;2023-03-01T14:54:43;7.20;99.90
41882;DHT22;27562;47.524;12.404;2023-03-01T14:57:20;7.10;99.90
41882;DHT22;27562;47.524;12.404;2023-03-01T14:59:47;7.00;99.90
41882;DHT22;27562;47.524;12.404;2023-03-01T15:02:17;7.00;99.90
41882;DHT22;27562;47.524;12.404;2023-03-01T15:04:49;7.00;99.90
41882;DHT22;27562;47.524;12.404;2023-03-01T15:07:15;7.00;99.90
41882;DHT22;27562;47.524;12.404;2023-03-01T15:09:41;6.90;99.90
41882;DHT22;27562;47.524;12.404;2023-03-01T15:14:51;6.90;99.90
41882;DHT22;27562;47.524;12.404;2023-03-01T15:17:29;6.90;99.90
41882;DHT22;27562;47.524;12.404;2023-03-01T15:19:55;6.90;99.90
41882;DHT22;27562;47.524;12.404;2023-03-01T15:22:21;6.90;99.90
41882;DHT22;27562;47.524;12.404;2023-03-01T15:24:51;6.90;99.90
41882;DHT22;27562;47.524;12.404;2023-03-01T15:27:17;6.90;99.90
41882;DHT22;27562;47.524;12.404;2023-03-01T15:29:50;6.90;99.90
41882;DHT22;27562;47.524;12.404;2023-03-01T15:32:27;6.90;99.90
41882;DHT22;27562;47.524;12.404;2023-03-01T15:34:53;6.90;99.90
41882;DHT22;27562;47.524;12.404;2023-03-01T15:40:17;6.60;99.90
41882;DHT22;27562;47.524;12.404;2023-03-01T15:42:43;6.40;99.90
41882;DHT22;27562;47.524;12.404;2023-03-01T15:48:18;6.10;99.90
41882;DHT22;27562;47.524;12.404;2023-03-01T15:50:38;6.00;99.90
41882;DHT22;27562;47.524;12.404;2023-03-01T15:53:10;5.90;99.90
41882;DHT22;27562;47.524;12.404;2023-03-01T15:55:36;5.80;99.90
41882;DHT22;27562;47.524;12.404;2023-03-01T15:58:03;5.70;99.90
41882;DHT22;27562;47.524;12.404;2023-03-01T16:00:29;5.70;99.90
41882;DHT22;27562;47.524;12.404;2023-03-01T16:02:55;5.60;99.90
41882;DHT22;27562;47.524;12.404;2023-03-01T16:05:22;5.60;99.90
41882;DHT22;27562;47.524;12.404;2023-03-01T16:07:48;5.50;99.90
41882;DHT22;27562;47.524;12.404;2023-03-01T16:10:14;5.40;99.90
41882;DHT22;27562;47.524;12.404;2023-03-01T16:12:40;5.40;99.90
41882;DHT22;27562;47.524;12.404;2023-03-01T16:15:26;5.30;99.90
41882;DHT22;27562;47.524;12.404;2023-03-01T16:17:52;5.20;99.90
41882;DHT22;27562;47.524;12.404;2023-03-01T16:20:18;5.10;99.90
41882;DHT22;27562;47.524;12.404;2023-03-01T16:22:44;5.00;99.90
41882;DHT22;27562;47.524;12.404;2023-03-01T16:25:11;5.00;99.90
41882;DHT22;27562;47.524;12.404;2023-03-01T16:27:37;4.90;99.90
41882;DHT22;27562;47.524;12.404;2023-03-01T16:30:03;4.90;99.90
41882;DHT22;27562;47.524;12.404;2023-03-01T16:32:29;4.80;99.90
41882;DHT22;27562;47.524;12.404;2023-03-01T16:34:54;4.60;99.90
41882;DHT22;27562;47.524;12.404;2023-03-01T16:37:20;4.50;99.90
41882;DHT22;27562;47.524;12.404;2023-03-01T16:39:47;4.30;99.90
41882;DHT22;27562;47.524;12.404;2023-03-01T16:42:15;4.20;99.90
41882;DHT22;27562;47.524;12.404;2023-03-01T16:44:42;4.00;99.90
41882;DHT22;27562;47.524;12.404;2023-03-01T16:47:08;3.90;99.90
41882;DHT22;27562;47.524;12.404;2023-03-01T16:49:33;3.90;99.90
41882;DHT22;27562;47.524;12.404;2023-03-01T16:51:59;3.80;99.90
41882;DHT22;27562;47.524;12.404;2023-03-01T16:54:24;3.80;99.90
41882;DHT22;27562;47.524;12.404;2023-03-01T16:56:50;3.70;99.90
41882;DHT22;27562;47.524;12.404;2023-03-01T16:59:16;3.70;99.90
41882;DHT22;27562;47.524;12.404;2023-03-01T17:01:43;3.70;99.90
41882;DHT22;27562;47.524;12.404;2023-03-01T17:04:12;3.70;99.90
41882;DHT22;27562;47.524;12.404;2023-03-01T17:06:38;3.60;99.90
41882;DHT22;27562;47.524;12.404;2023-03-01T17:09:04;3.50;99.90
41882;DHT22;27562;47.524;12.404;2023-03-01T17:11:29;3.40;99.90
41882;DHT22;27562;47.524;12.404;2023-03-01T17:13:55;3.30;99.90
41882;DHT22;27562;47.524;12.404;2023-03-01T17:16:21;3.30;99.90
41882;DHT22;27562;47.524;12.404;2023-03-01T17:18:47;3.20;99.90
41882;DHT22;27562;47.524;12.404;2023-03-01T17:21:13;3.20;99.90
41882;DHT22;27562;47.524;12.404;2023-03-01T17:23:40;3.10;99.90